sensor_id;sensor_type;location;lat;lon;timestamp;temperature;humidity
24902;DHT22;31328;51.402;0.016;2023-09-12T00:00:22;19.80;97.40
24902;DHT22;31328;51.402;0.016;2023-09-12T00:02:49;19.80;97.50
24902;DHT22;31328;51.402;0.016;2023-09-12T00:05:15;19.70;97.50
24902;DHT22;31328;51.402;0.016;2023-09-12T00:07:42;19.80;97.60
24902;DHT22;31328;51.402;0.016;2023-09-12T00:10:09;19.80;97.70
24902;DHT22;31328;51.402;0.016;2023-09-12T00:12:35;19.70;97.70
24902;DHT22;31328;51.402;0.016;2023-09-12T00:15:01;19.70;97.70
24902;DHT22;31328;51.402;0.016;2023-09-12T00:17:30;19.70;97.70
24902;DHT22;31328;51.402;0.016;2023-09-12T00:19:56;19.60;97.70
24902;DHT22;31328;51.402;0.016;2023-09-12T00:22:22;19.60;97.80
24902;DHT22;31328;51.402;0.016;2023-09-12T00:24:49;19.60;97.80
24902;DHT22;31328;51.402;0.016;2023-09-12T00:27:15;19.60;97.90
24902;DHT22;31328;51.402;0.016;2023-09-12T00:29:41;19.60;97.90
24902;DHT22;31328;51.402;0.016;2023-09-12T00:32:08;19.60;97.90
24902;DHT22;31328;51.402;0.016;2023-09-12T00:34:34;19.60;98.00
24902;DHT22;31328;51.402;0.016;2023-09-12T00:37:00;19.50;98.00
24902;DHT22;31328;51.402;0.016;2023-09-12T00:39:26;19.50;98.00
24902;DHT22;31328;51.402;0.016;2023-09-12T00:41:53;19.50;98.10
24902;DHT22;31328;51.402;0.016;2023-09-12T00:44:19;19.50;98.10
24902;DHT22;31328;51.402;0.016;2023-09-12T00:46:46;19.40;98.10
24902;DHT22;31328;51.402;0.016;2023-09-12T00:49:14;19.40;98.20
24902;DHT22;31328;51.402;0.016;2023-09-12T00:51:41;19.40;98.20
24902;DHT22;31328;51.402;0.016;2023-09-12T00:54:08;19.40;98.30
24902;DHT22;31328;51.402;0.016;2023-09-12T00:56:34;19.40;98.30
24902;DHT22;31328;51.402;0.016;2023-09-12T00:59:01;19.30;98.40
24902;DHT22;31328;51.402;0.016;2023-09-12T01:01:28;19.30;98.30
24902;DHT22;31328;51.402;0.016;2023-09-12T01:03:55;19.30;98.40
24902;DHT22;31328;51.402;0.016;2023-09-12T01:06:23;19.30;98.40
24902;DHT22;31328;51.402;0.016;2023-09-12T01:08:52;19.20;98.40
24902;DHT22;31328;51.402;0.016;2023-09-12T01:11:20;19.20;98.50
24902;DHT22;31328;51.402;0.016;2023-09-12T01:13:46;19.20;98.60
24902;DHT22;31328;51.402;0.016;2023-09-12T01:16:12;19.20;98.60
24902;DHT22;31328;51.402;0.016;2023-09-12T01:18:39;19.20;98.60
24902;DHT22;31328;51.402;0.016;2023-09-12T01:28:55;19.20;98.80
24902;DHT22;31328;51.402;0.016;2023-09-12T01:31:23;19.20;98.70
24902;DHT22;31328;51.402;0.016;2023-09-12T01:33:55;19.20;98.70
24902;DHT22;31328;51.402;0.016;2023-09-12T01:36:22;19.20;98.70
24902;DHT22;31328;51.402;0.016;2023-09-12T01:38:48;19.20;98.80
24902;DHT22;31328;51.402;0.016;2023-09-12T01:41:15;19.20;98.80
24902;DHT22;31328;51.402;0.016;2023-09-12T01:43:42;19.20;98.90
24902;DHT22;31328;51.402;0.016;2023-09-12T01:46:09;19.20;98.90
24902;DHT22;31328;51.402;0.016;2023-09-12T01:48:36;19.20;98.90
24902;DHT22;31328;51.402;0.016;2023-09-12T01:51:05;19.20;98.90
24902;DHT22;31328;51.402;0.016;2023-09-12T01:53:33;19.20;98.90
24902;DHT22;31328;51.402;0.016;2023-09-12T01:56:01;19.20;98.90
24902;DHT22;31328;51.402;0.016;2023-09-12T01:58:27;19.20;99.00
24902;DHT22;31328;51.402;0.016;2023-09-12T02:00:54;19.30;99.00
24902;DHT22;31328;51.402;0.016;2023-09-12T02:03:22;19.20;99.00
24902;DHT22;31328;51.402;0.016;2023-09-12T02:05:48;19.20;99.00
24902;DHT22;31328;51.402;0.016;2023-09-12T02:08:14;19.20;99.00
24902;DHT22;31328;51.402;0.016;2023-09-12T02:10:41;19.30;99.10
24902;DHT22;31328;51.402;0.016;2023-09-12T02:13:07;19.30;99.10
24902;DHT22;31328;51.402;0.016;2023-09-12T02:15:33;19.30;99.10
24902;DHT22;31328;51.402;0.016;2023-09-12T02:18:00;19.30;99.10
24902;DHT22;31328;51.402;0.016;2023-09-12T02:20:26;19.30;99.20
24902;DHT22;31328;51.402;0.016;2023-09-12T02:22:52;19.30;99.20
24902;DHT22;31328;51.402;0.016;2023-09-12T02:25:18;19.30;99.20
24902;DHT22;31328;51.402;0.016;2023-09-12T02:27:47;19.30;99.20
24902;DHT22;31328;51.402;0.016;2023-09-12T02:30:14;19.30;99.30
24902;DHT22;31328;51.402;0.016;2023-09-12T02:32:42;19.30;99.20
24902;DHT22;31328;51.402;0.016;2023-09-12T02:35:09;19.40;99.30
24902;DHT22;31328;51.402;0.016;2023-09-12T02:37:35;19.30;99.30
24902;DHT22;31328;51.402;0.016;2023-09-12T02:40:02;19.40;99.30
24902;DHT22;31328;51.402;0.016;2023-09-12T02:42:31;19.30;99.30
24902;DHT22;31328;51.402;0.016;2023-09-12T02:44:57;19.40;99.30
24902;DHT22;31328;51.402;0.016;2023-09-12T02:47:24;19.30;99.40
24902;DHT22;31328;51.402;0.016;2023-09-12T02:49:50;19.40;99.40
24902;DHT22;31328;51.402;0.016;2023-09-12T02:52:16;19.40;99.40
24902;DHT22;31328;51.402;0.016;2023-09-12T02:54:43;19.40;99.40
24902;DHT22;31328;51.402;0.016;2023-09-12T02:57:09;19.30;99.40
24902;DHT22;31328;51.402;0.016;2023-09-12T02:59:36;19.40;99.50
24902;DHT22;31328;51.402;0.016;2023-09-12T03:02:03;19.40;99.50
24902;DHT22;31328;51.402;0.016;2023-09-12T03:04:29;19.40;99.80
24902;DHT22;31328;51.402;0.016;2023-09-12T03:06:56;19.40;99.50
24902;DHT22;31328;51.402;0.016;2023-09-12T03:09:23;19.40;99.60
24902;DHT22;31328;51.402;0.016;2023-09-12T03:11:50;19.40;99.50
24902;DHT22;31328;51.402;0.016;2023-09-12T03:14:16;19.40;99.50
24902;DHT22;31328;51.402;0.016;2023-09-12T03:16:42;19.40;99.60
24902;DHT22;31328;51.402;0.016;2023-09-12T03:19:09;19.40;99.60
24902;DHT22;31328;51.402;0.016;2023-09-12T03:21:35;19.30;99.60
24902;DHT22;31328;51.402;0.016;2023-09-12T03:24:02;19.40;99.60
24902;DHT22;31328;51.402;0.016;2023-09-12T03:26:28;19.40;99.60
24902;DHT22;31328;51.402;0.016;2023-09-12T03:28:55;19.40;99.60
24902;DHT22;31328;51.402;0.016;2023-09-12T03:31:22;19.40;99.60
24902;DHT22;31328;51.402;0.016;2023-09-12T03:33:49;19.40;99.70
24902;DHT22;31328;51.402;0.016;2023-09-12T03:36:17;19.40;99.70
24902;DHT22;31328;51.402;0.016;2023-09-12T03:38:47;19.40;99.80
24902;DHT22;31328;51.402;0.016;2023-09-12T03:41:13;19.40;99.80
24902;DHT22;31328;51.402;0.016;2023-09-12T03:43:39;19.40;99.80
24902;DHT22;31328;51.402;0.016;2023-09-12T03:46:06;19.40;99.70
24902;DHT22;31328;51.402;0.016;2023-09-12T03:48:34;19.40;99.90
24902;DHT22;31328;51.402;0.016;2023-09-12T03:51:03;19.40;99.80
24902;DHT22;31328;51.402;0.016;2023-09-12T03:53:30;19.40;99.90
24902;DHT22;31328;51.402;0.016;2023-09-12T03:55:57;19.40;99.80
24902;DHT22;31328;51.402;0.016;2023-09-12T03:58:24;19.40;99.90
24902;DHT22;31328;51.402;0.016;2023-09-12T04:00:50;19.40;99.90
24902;DHT22;31328;51.402;0.016;2023-09-12T04:03:16;19.40;99.90
24902;DHT22;31328;51.402;0.016;2023-09-12T04:05:43;19.40;99.90
24902;DHT22;31328;51.402;0.016;2023-09-12T04:08:09;19.40;99.90
24902;DHT22;31328;51.402;0.016;2023-09-12T04:10:35;19.40;99.90
24902;DHT22;31328;51.402;0.016;2023-09-12T04:13:02;19.40;99.90
24902;DHT22;31328;51.402;0.016;2023-09-12T04:15:28;19.40;99.90
24902;DHT22;31328;51.402;0.016;2023-09-12T04:17:54;19.40;99.90
24902;DHT22;31328;51.402;0.016;2023-09-12T04:20:21;19.30;99.90
24902;DHT22;31328;51.402;0.016;2023-09-12T04:22:47;19.40;99.90
24902;DHT22;31328;51.402;0.016;2023-09-12T04:25:14;19.40;99.90
24902;DHT22;31328;51.402;0.016;2023-09-12T04:27:41;19.30;99.90
24902;DHT22;31328;51.402;0.016;2023-09-12T04:30:08;19.30;99.90
24902;DHT22;31328;51.402;0.016;2023-09-12T04:32:35;19.30;99.90
24902;DHT22;31328;51.402;0.016;2023-09-12T04:35:01;19.30;99.90
24902;DHT22;31328;51.402;0.016;2023-09-12T04:37:27;19.20;99.90
24902;DHT22;31328;51.402;0.016;2023-09-12T04:39:53;19.20;99.90
24902;DHT22;31328;51.402;0.016;2023-09-12T04:42:21;19.20;99.90
24902;DHT22;31328;51.402;0.016;2023-09-12T04:44:48;19.20;99.90
24902;DHT22;31328;51.402;0.016;2023-09-12T04:47:14;19.10;99.90
24902;DHT22;31328;51.402;0.016;2023-09-12T04:49:43;19.20;99.90
24902;DHT22;31328;51.402;0.016;2023-09-12T04:52:09;19.10;99.90
24902;DHT22;31328;51.402;0.016;2023-09-12T04:54:35;19.10;99.90
24902;DHT22;31328;51.402;0.016;2023-09-12T04:57:02;19.10;99.90
24902;DHT22;31328;51.402;0.016;2023-09-12T04:59:29;19.10;99.90
24902;DHT22;31328;51.402;0.016;2023-09-12T05:01:55;19.10;99.90
24902;DHT22;31328;51.402;0.016;2023-09-12T05:04:22;19.10;99.90
24902;DHT22;31328;51.402;0.016;2023-09-12T05:06:49;19.10;99.90
24902;DHT22;31328;51.402;0.016;2023-09-12T05:09:15;19.10;99.90
24902;DHT22;31328;51.402;0.016;2023-09-12T05:11:42;19.10;99.90
24902;DHT22;31328;51.402;0.016;2023-09-12T05:14:09;19.10;99.90
24902;DHT22;31328;51.402;0.016;2023-09-12T05:16:35;19.10;99.90
24902;DHT22;31328;51.402;0.016;2023-09-12T05:19:01;19.00;99.90
24902;DHT22;31328;51.402;0.016;2023-09-12T05:21:29;19.10;99.90
24902;DHT22;31328;51.402;0.016;2023-09-12T05:23:55;19.10;99.90
24902;DHT22;31328;51.402;0.016;2023-09-12T05:26:22;19.00;99.90
24902;DHT22;31328;51.402;0.016;2023-09-12T05:28:48;19.00;99.90
24902;DHT22;31328;51.402;0.016;2023-09-12T05:31:15;19.00;99.90
24902;DHT22;31328;51.402;0.016;2023-09-12T05:33:41;19.00;99.90
24902;DHT22;31328;51.402;0.016;2023-09-12T05:36:07;19.00;99.90
24902;DHT22;31328;51.402;0.016;2023-09-12T05:38:33;19.00;99.90
24902;DHT22;31328;51.402;0.016;2023-09-12T05:41:00;19.00;99.90
24902;DHT22;31328;51.402;0.016;2023-09-12T05:43:26;19.00;99.90
24902;DHT22;31328;51.402;0.016;2023-09-12T05:45:53;19.00;99.90
24902;DHT22;31328;51.402;0.016;2023-09-12T05:48:19;18.90;99.90
24902;DHT22;31328;51.402;0.016;2023-09-12T05:50:46;19.00;99.90
24902;DHT22;31328;51.402;0.016;2023-09-12T05:53:12;19.00;99.90
24902;DHT22;31328;51.402;0.016;2023-09-12T05:55:38;18.90;99.90
24902;DHT22;31328;51.402;0.016;2023-09-12T05:58:04;18.90;99.90
24902;DHT22;31328;51.402;0.016;2023-09-12T06:00:33;18.90;99.90
24902;DHT22;31328;51.402;0.016;2023-09-12T06:03:00;18.90;99.90
24902;DHT22;31328;51.402;0.016;2023-09-12T06:05:26;18.90;99.90
24902;DHT22;31328;51.402;0.016;2023-09-12T06:07:52;18.90;99.90
24902;DHT22;31328;51.402;0.016;2023-09-12T06:10:19;18.90;99.90
24902;DHT22;31328;51.402;0.016;2023-09-12T06:12:45;19.00;99.90
24902;DHT22;31328;51.402;0.016;2023-09-12T06:15:11;18.90;99.90
24902;DHT22;31328;51.402;0.016;2023-09-12T06:17:37;18.90;99.90
24902;DHT22;31328;51.402;0.016;2023-09-12T06:20:04;19.00;99.90
24902;DHT22;31328;51.402;0.016;2023-09-12T06:22:33;18.90;99.90
24902;DHT22;31328;51.402;0.016;2023-09-12T06:25:01;19.00;99.90
24902;DHT22;31328;51.402;0.016;2023-09-12T06:27:27;19.00;99.90
24902;DHT22;31328;51.402;0.016;2023-09-12T06:29:53;19.00;99.90
24902;DHT22;31328;51.402;0.016;2023-09-12T06:32:20;19.00;99.90
24902;DHT22;31328;51.402;0.016;2023-09-12T06:34:46;19.00;99.90
24902;DHT22;31328;51.402;0.016;2023-09-12T06:37:13;19.00;99.90
24902;DHT22;31328;51.402;0.016;2023-09-12T06:39:39;19.10;99.90
24902;DHT22;31328;51.402;0.016;2023-09-12T06:42:06;19.10;99.90
24902;DHT22;31328;51.402;0.016;2023-09-12T06:44:32;19.20;99.90
24902;DHT22;31328;51.402;0.016;2023-09-12T06:46:59;19.20;99.90
24902;DHT22;31328;51.402;0.016;2023-09-12T06:49:25;19.30;99.90
24902;DHT22;31328;51.402;0.016;2023-09-12T06:51:51;19.30;99.90
24902;DHT22;31328;51.402;0.016;2023-09-12T06:54:17;19.30;99.90
24902;DHT22;31328;51.402;0.016;2023-09-12T06:56:44;19.30;99.90
24902;DHT22;31328;51.402;0.016;2023-09-12T06:59:11;19.30;99.90
24902;DHT22;31328;51.402;0.016;2023-09-12T07:01:37;19.40;99.90
24902;DHT22;31328;51.402;0.016;2023-09-12T07:04:03;19.50;99.90
24902;DHT22;31328;51.402;0.016;2023-09-12T07:06:30;19.50;99.90
24902;DHT22;31328;51.402;0.016;2023-09-12T07:08:56;19.50;99.90
24902;DHT22;31328;51.402;0.016;2023-09-12T07:11:22;19.50;99.90
24902;DHT22;31328;51.402;0.016;2023-09-12T07:13:50;19.60;99.90
24902;DHT22;31328;51.402;0.016;2023-09-12T07:16:16;19.60;99.90
24902;DHT22;31328;51.402;0.016;2023-09-12T07:18:42;19.60;99.90
24902;DHT22;31328;51.402;0.016;2023-09-12T07:21:09;19.70;99.90
24902;DHT22;31328;51.402;0.016;2023-09-12T07:23:37;19.70;99.90
24902;DHT22;31328;51.402;0.016;2023-09-12T07:26:03;19.70;99.90
24902;DHT22;31328;51.402;0.016;2023-09-12T07:28:30;19.70;99.90
24902;DHT22;31328;51.402;0.016;2023-09-12T07:30:57;19.70;99.90
24902;DHT22;31328;51.402;0.016;2023-09-12T07:33:23;19.80;99.90
24902;DHT22;31328;51.402;0.016;2023-09-12T07:35:53;19.80;99.90
24902;DHT22;31328;51.402;0.016;2023-09-12T07:38:20;19.80;99.90
24902;DHT22;31328;51.402;0.016;2023-09-12T07:40:47;19.80;99.90
24902;DHT22;31328;51.402;0.016;2023-09-12T07:43:14;19.80;99.90
24902;DHT22;31328;51.402;0.016;2023-09-12T07:45:40;19.90;99.90
24902;DHT22;31328;51.402;0.016;2023-09-12T07:48:10;19.90;99.90
24902;DHT22;31328;51.402;0.016;2023-09-12T07:50:37;19.90;99.90
24902;DHT22;31328;51.402;0.016;2023-09-12T07:53:06;19.90;99.90
24902;DHT22;31328;51.402;0.016;2023-09-12T07:55:37;20.00;99.90
24902;DHT22;31328;51.402;0.016;2023-09-12T07:58:15;20.10;99.90
24902;DHT22;31328;51.402;0.016;2023-09-12T08:00:44;20.10;99.90
24902;DHT22;31328;51.402;0.016;2023-09-12T08:03:10;20.10;99.90
24902;DHT22;31328;51.402;0.016;2023-09-12T08:05:37;20.20;99.90
24902;DHT22;31328;51.402;0.016;2023-09-12T08:08:04;20.20;99.90
24902;DHT22;31328;51.402;0.016;2023-09-12T08:10:30;20.30;99.90
24902;DHT22;31328;51.402;0.016;2023-09-12T08:13:00;20.30;99.90
24902;DHT22;31328;51.402;0.016;2023-09-12T08:15:26;20.30;99.90
24902;DHT22;31328;51.402;0.016;2023-09-12T08:17:54;20.40;99.90
24902;DHT22;31328;51.402;0.016;2023-09-12T08:20:20;20.40;99.90
24902;DHT22;31328;51.402;0.016;2023-09-12T08:22:47;20.40;99.90
24902;DHT22;31328;51.402;0.016;2023-09-12T08:25:14;20.50;99.90
24902;DHT22;31328;51.402;0.016;2023-09-12T08:27:41;20.50;99.90
24902;DHT22;31328;51.402;0.016;2023-09-12T08:30:11;20.50;99.90
24902;DHT22;31328;51.402;0.016;2023-09-12T08:32:39;20.50;99.90
24902;DHT22;31328;51.402;0.016;2023-09-12T08:35:10;20.60;99.90
24902;DHT22;31328;51.402;0.016;2023-09-12T08:37:38;20.60;99.90
24902;DHT22;31328;51.402;0.016;2023-09-12T08:40:09;20.70;99.90
24902;DHT22;31328;51.402;0.016;2023-09-12T08:42:43;20.70;99.90
24902;DHT22;31328;51.402;0.016;2023-09-12T08:45:15;20.70;99.90
24902;DHT22;31328;51.402;0.016;2023-09-12T08:47:43;20.70;99.90
24902;DHT22;31328;51.402;0.016;2023-09-12T08:50:14;20.70;99.90
24902;DHT22;31328;51.402;0.016;2023-09-12T08:52:44;20.70;99.90
24902;DHT22;31328;51.402;0.016;2023-09-12T08:55:11;20.70;99.90
24902;DHT22;31328;51.402;0.016;2023-09-12T08:57:42;20.70;99.90
24902;DHT22;31328;51.402;0.016;2023-09-12T09:00:10;20.80;99.90
24902;DHT22;31328;51.402;0.016;2023-09-12T09:02:40;20.80;99.90
24902;DHT22;31328;51.402;0.016;2023-09-12T09:05:07;20.80;99.90
24902;DHT22;31328;51.402;0.016;2023-09-12T09:07:41;20.80;99.90
24902;DHT22;31328;51.402;0.016;2023-09-12T09:10:14;20.80;99.90
24902;DHT22;31328;51.402;0.016;2023-09-12T09:12:43;20.80;99.90
24902;DHT22;31328;51.402;0.016;2023-09-12T09:15:29;20.80;99.90
24902;DHT22;31328;51.402;0.016;2023-09-12T09:17:57;20.90;99.90
24902;DHT22;31328;51.402;0.016;2023-09-12T09:20:31;20.90;99.90
24902;DHT22;31328;51.402;0.016;2023-09-12T09:23:00;20.90;99.90
24902;DHT22;31328;51.402;0.016;2023-09-12T09:25:27;20.90;99.90
24902;DHT22;31328;51.402;0.016;2023-09-12T09:27:54;20.90;99.90
24902;DHT22;31328;51.402;0.016;2023-09-12T09:30:43;20.90;99.90
24902;DHT22;31328;51.402;0.016;2023-09-12T09:33:09;20.90;99.90
24902;DHT22;31328;51.402;0.016;2023-09-12T09:35:36;20.90;99.80
24902;DHT22;31328;51.402;0.016;2023-09-12T09:38:06;20.90;99.80
24902;DHT22;31328;51.402;0.016;2023-09-12T09:40:33;21.00;99.70
24902;DHT22;31328;51.402;0.016;2023-09-12T09:43:01;21.10;99.70
24902;DHT22;31328;51.402;0.016;2023-09-12T09:45:29;21.10;99.60
24902;DHT22;31328;51.402;0.016;2023-09-12T09:48:03;21.20;99.60
24902;DHT22;31328;51.402;0.016;2023-09-12T09:50:30;21.30;99.60
24902;DHT22;31328;51.402;0.016;2023-09-12T09:52:57;21.40;99.50
24902;DHT22;31328;51.402;0.016;2023-09-12T09:55:23;21.50;99.40
24902;DHT22;31328;51.402;0.016;2023-09-12T09:57:50;21.50;99.30
24902;DHT22;31328;51.402;0.016;2023-09-12T10:00:21;21.60;99.20
24902;DHT22;31328;51.402;0.016;2023-09-12T10:02:50;21.70;99.10
24902;DHT22;31328;51.402;0.016;2023-09-12T10:05:18;21.70;99.10
24902;DHT22;31328;51.402;0.016;2023-09-12T10:07:48;21.70;99.10
24902;DHT22;31328;51.402;0.016;2023-09-12T10:10:17;21.80;98.90
24902;DHT22;31328;51.402;0.016;2023-09-12T10:12:49;21.90;98.90
24902;DHT22;31328;51.402;0.016;2023-09-12T10:15:19;22.00;98.90
24902;DHT22;31328;51.402;0.016;2023-09-12T10:17:57;22.00;98.80
24902;DHT22;31328;51.402;0.016;2023-09-12T10:20:37;22.00;98.70
24902;DHT22;31328;51.402;0.016;2023-09-12T10:23:11;22.10;98.60
24902;DHT22;31328;51.402;0.016;2023-09-12T10:25:43;22.20;98.60
24902;DHT22;31328;51.402;0.016;2023-09-12T10:28:09;22.20;98.60
24902;DHT22;31328;51.402;0.016;2023-09-12T10:30:37;22.30;98.60
24902;DHT22;31328;51.402;0.016;2023-09-12T10:33:04;22.40;98.40
24902;DHT22;31328;51.402;0.016;2023-09-12T10:35:31;22.40;98.30
24902;DHT22;31328;51.402;0.016;2023-09-12T10:38:00;22.50;98.30
24902;DHT22;31328;51.402;0.016;2023-09-12T10:40:31;22.40;97.80
24902;DHT22;31328;51.402;0.016;2023-09-12T10:42:59;22.40;97.90
24902;DHT22;31328;51.402;0.016;2023-09-12T10:45:27;22.50;98.00
24902;DHT22;31328;51.402;0.016;2023-09-12T10:47:55;22.40;98.00
24902;DHT22;31328;51.402;0.016;2023-09-12T10:50:21;22.40;97.90
24902;DHT22;31328;51.402;0.016;2023-09-12T10:52:47;22.40;97.90
24902;DHT22;31328;51.402;0.016;2023-09-12T10:55:17;22.50;97.80
24902;DHT22;31328;51.402;0.016;2023-09-12T10:58:04;22.50;97.80
24902;DHT22;31328;51.402;0.016;2023-09-12T11:00:30;22.60;97.70
24902;DHT22;31328;51.402;0.016;2023-09-12T11:05:54;22.70;97.40
24902;DHT22;31328;51.402;0.016;2023-09-12T11:08:20;22.80;97.40
24902;DHT22;31328;51.402;0.016;2023-09-12T11:11:22;22.90;97.30
24902;DHT22;31328;51.402;0.016;2023-09-12T11:14:05;23.00;97.00
24902;DHT22;31328;51.402;0.016;2023-09-12T11:16:32;23.10;97.00
24902;DHT22;31328;51.402;0.016;2023-09-12T11:21:50;23.20;96.90
24902;DHT22;31328;51.402;0.016;2023-09-12T11:24:16;23.20;97.00
24902;DHT22;31328;51.402;0.016;2023-09-12T11:27:00;23.30;96.70
24902;DHT22;31328;51.402;0.016;2023-09-12T11:29:38;23.30;96.50
24902;DHT22;31328;51.402;0.016;2023-09-12T11:32:05;23.30;96.40
24902;DHT22;31328;51.402;0.016;2023-09-12T11:37:04;23.30;96.40
24902;DHT22;31328;51.402;0.016;2023-09-12T11:39:32;23.30;96.40
24902;DHT22;31328;51.402;0.016;2023-09-12T11:42:00;23.40;96.30
24902;DHT22;31328;51.402;0.016;2023-09-12T11:44:28;23.40;96.20
24902;DHT22;31328;51.402;0.016;2023-09-12T11:47:00;23.40;96.30
24902;DHT22;31328;51.402;0.016;2023-09-12T11:49:39;23.40;96.20
24902;DHT22;31328;51.402;0.016;2023-09-12T11:52:13;23.40;96.20
24902;DHT22;31328;51.402;0.016;2023-09-12T11:54:41;23.40;96.10
24902;DHT22;31328;51.402;0.016;2023-09-12T11:57:12;23.40;96.10
24902;DHT22;31328;51.402;0.016;2023-09-12T11:59:41;23.40;96.10
24902;DHT22;31328;51.402;0.016;2023-09-12T12:02:10;23.40;96.00
24902;DHT22;31328;51.402;0.016;2023-09-12T12:04:37;23.40;95.90
24902;DHT22;31328;51.402;0.016;2023-09-12T12:07:04;23.50;95.90
24902;DHT22;31328;51.402;0.016;2023-09-12T12:09:31;23.50;95.50
24902;DHT22;31328;51.402;0.016;2023-09-12T12:12:13;23.50;95.40
24902;DHT22;31328;51.402;0.016;2023-09-12T12:14:40;23.50;95.40
24902;DHT22;31328;51.402;0.016;2023-09-12T12:17:08;23.50;95.50
24902;DHT22;31328;51.402;0.016;2023-09-12T12:19:35;23.50;95.40
24902;DHT22;31328;51.402;0.016;2023-09-12T12:22:04;23.50;95.30
24902;DHT22;31328;51.402;0.016;2023-09-12T12:24:39;23.50;95.20
24902;DHT22;31328;51.402;0.016;2023-09-12T12:27:07;23.50;95.20
24902;DHT22;31328;51.402;0.016;2023-09-12T12:29:36;23.50;95.20
24902;DHT22;31328;51.402;0.016;2023-09-12T12:32:03;23.40;95.10
24902;DHT22;31328;51.402;0.016;2023-09-12T12:34:31;23.40;95.10
24902;DHT22;31328;51.402;0.016;2023-09-12T12:36:57;23.40;94.90
24902;DHT22;31328;51.402;0.016;2023-09-12T12:39:24;23.30;95.00
24902;DHT22;31328;51.402;0.016;2023-09-12T12:41:54;23.30;95.00
24902;DHT22;31328;51.402;0.016;2023-09-12T12:44:21;23.20;95.10
24902;DHT22;31328;51.402;0.016;2023-09-12T12:46:49;23.20;95.00
24902;DHT22;31328;51.402;0.016;2023-09-12T12:49:16;23.10;95.10
24902;DHT22;31328;51.402;0.016;2023-09-12T12:51:42;23.10;95.10
24902;DHT22;31328;51.402;0.016;2023-09-12T12:54:09;23.20;95.10
24902;DHT22;31328;51.402;0.016;2023-09-12T12:56:35;23.20;95.00
24902;DHT22;31328;51.402;0.016;2023-09-12T12:59:03;23.20;94.90
24902;DHT22;31328;51.402;0.016;2023-09-12T13:01:31;23.20;94.80
24902;DHT22;31328;51.402;0.016;2023-09-12T13:03:57;23.20;94.80
24902;DHT22;31328;51.402;0.016;2023-09-12T13:06:23;23.30;94.70
24902;DHT22;31328;51.402;0.016;2023-09-12T13:08:51;23.30;94.60
24902;DHT22;31328;51.402;0.016;2023-09-12T13:11:18;23.30;94.40
24902;DHT22;31328;51.402;0.016;2023-09-12T13:13:44;23.20;94.40
24902;DHT22;31328;51.402;0.016;2023-09-12T13:16:13;23.20;94.60
24902;DHT22;31328;51.402;0.016;2023-09-12T13:18:40;23.20;94.60
24902;DHT22;31328;51.402;0.016;2023-09-12T13:21:07;23.20;94.60
24902;DHT22;31328;51.402;0.016;2023-09-12T13:23:35;23.20;94.60
24902;DHT22;31328;51.402;0.016;2023-09-12T13:26:01;23.20;94.70
24902;DHT22;31328;51.402;0.016;2023-09-12T13:28:29;23.20;94.70
24902;DHT22;31328;51.402;0.016;2023-09-12T13:30:56;23.30;94.70
24902;DHT22;31328;51.402;0.016;2023-09-12T13:33:23;23.30;95.00
24902;DHT22;31328;51.402;0.016;2023-09-12T13:35:50;23.30;94.80
24902;DHT22;31328;51.402;0.016;2023-09-12T13:38:16;23.30;95.10
24902;DHT22;31328;51.402;0.016;2023-09-12T13:40:45;23.30;95.20
24902;DHT22;31328;51.402;0.016;2023-09-12T13:43:12;23.30;95.30
24902;DHT22;31328;51.402;0.016;2023-09-12T13:45:38;23.30;95.20
24902;DHT22;31328;51.402;0.016;2023-09-12T13:48:06;23.30;95.50
24902;DHT22;31328;51.402;0.016;2023-09-12T13:50:32;23.30;95.80
24902;DHT22;31328;51.402;0.016;2023-09-12T13:53:00;23.30;96.70
24902;DHT22;31328;51.402;0.016;2023-09-12T13:55:29;23.20;96.10
24902;DHT22;31328;51.402;0.016;2023-09-12T13:57:56;23.30;96.70
24902;DHT22;31328;51.402;0.016;2023-09-12T14:00:22;23.20;96.00
24902;DHT22;31328;51.402;0.016;2023-09-12T14:02:48;23.10;94.60
24902;DHT22;31328;51.402;0.016;2023-09-12T14:05:15;23.10;94.40
24902;DHT22;31328;51.402;0.016;2023-09-12T14:07:41;23.20;96.00
24902;DHT22;31328;51.402;0.016;2023-09-12T14:10:08;23.20;95.30
24902;DHT22;31328;51.402;0.016;2023-09-12T14:12:34;23.20;96.30
24902;DHT22;31328;51.402;0.016;2023-09-12T14:15:01;23.10;97.70
24902;DHT22;31328;51.402;0.016;2023-09-12T14:17:30;23.20;97.80
24902;DHT22;31328;51.402;0.016;2023-09-12T14:19:56;23.10;98.50
24902;DHT22;31328;51.402;0.016;2023-09-12T14:22:22;23.10;97.50
24902;DHT22;31328;51.402;0.016;2023-09-12T14:24:49;23.10;98.10
24902;DHT22;31328;51.402;0.016;2023-09-12T14:27:15;23.10;98.10
24902;DHT22;31328;51.402;0.016;2023-09-12T14:29:41;23.00;97.70
24902;DHT22;31328;51.402;0.016;2023-09-12T14:32:12;23.00;97.90
24902;DHT22;31328;51.402;0.016;2023-09-12T14:34:38;23.00;99.90
24902;DHT22;31328;51.402;0.016;2023-09-12T14:37:04;23.00;94.80
24902;DHT22;31328;51.402;0.016;2023-09-12T14:39:30;23.00;98.40
24902;DHT22;31328;51.402;0.016;2023-09-12T14:41:57;22.90;97.80
24902;DHT22;31328;51.402;0.016;2023-09-12T14:44:26;22.90;98.30
24902;DHT22;31328;51.402;0.016;2023-09-12T14:46:54;22.90;98.30
24902;DHT22;31328;51.402;0.016;2023-09-12T14:49:20;23.00;98.50
24902;DHT22;31328;51.402;0.016;2023-09-12T14:51:46;22.90;98.40
24902;DHT22;31328;51.402;0.016;2023-09-12T14:54:13;23.00;98.30
24902;DHT22;31328;51.402;0.016;2023-09-12T14:56:39;23.00;98.70
24902;DHT22;31328;51.402;0.016;2023-09-12T14:59:08;22.90;98.20
24902;DHT22;31328;51.402;0.016;2023-09-12T15:01:34;22.90;98.20
24902;DHT22;31328;51.402;0.016;2023-09-12T15:04:01;22.90;98.20
24902;DHT22;31328;51.402;0.016;2023-09-12T15:06:27;22.90;98.20
24902;DHT22;31328;51.402;0.016;2023-09-12T15:08:54;22.90;98.00
24902;DHT22;31328;51.402;0.016;2023-09-12T15:11:20;22.80;97.50
24902;DHT22;31328;51.402;0.016;2023-09-12T15:13:46;22.80;97.50
24902;DHT22;31328;51.402;0.016;2023-09-12T15:16:13;22.80;97.80
24902;DHT22;31328;51.402;0.016;2023-09-12T15:18:39;22.90;96.30
24902;DHT22;31328;51.402;0.016;2023-09-12T15:21:07;22.90;97.70
24902;DHT22;31328;51.402;0.016;2023-09-12T15:23:33;22.90;98.50
24902;DHT22;31328;51.402;0.016;2023-09-12T15:26:00;22.80;98.20
24902;DHT22;31328;51.402;0.016;2023-09-12T15:28:26;22.80;97.60
24902;DHT22;31328;51.402;0.016;2023-09-12T15:30:52;22.80;97.60
24902;DHT22;31328;51.402;0.016;2023-09-12T15:33:20;22.80;97.80
24902;DHT22;31328;51.402;0.016;2023-09-12T15:35:49;22.80;97.30
24902;DHT22;31328;51.402;0.016;2023-09-12T15:38:15;22.80;99.40
24902;DHT22;31328;51.402;0.016;2023-09-12T15:40:41;22.80;99.40
24902;DHT22;31328;51.402;0.016;2023-09-12T15:43:07;22.70;99.60
24902;DHT22;31328;51.402;0.016;2023-09-12T15:45:34;22.70;99.60
24902;DHT22;31328;51.402;0.016;2023-09-12T15:48:00;22.60;99.90